Time;durP1;ratioP1;P1;durP2;ratioP2;P2;SDS_P1;SDS_P2;PMS_P1;PMS_P2;Temp;Humidity;BMP_temperature;BMP_pressure;BME280_temperature;BME280_humidity;BME280_pressure;Samples;Min_cycle;Max_cycle;Signal;HPM_P1;HPM_P2
2021/09/12 00:01:09;;;;;;;;;;;15.80;99.90;;;;;;5137989;27;19923;-86
2021/09/12 00:03:37;;;;;;;;;;;15.70;99.90;;;;;;5137820;27;19923;-86
2021/09/12 00:06:05;;;;;;;;;;;15.70;99.90;;;;;;5137284;27;19941;-86
2021/09/12 00:08:34;;;;;;;;;;;15.70;99.90;;;;;;5137836;27;19923;-86
2021/09/12 00:11:02;;;;;;;;;;;15.70;99.90;;;;;;5136416;27;19928;-86
2021/09/12 00:13:30;;;;;;;;;;;15.70;99.90;;;;;;5137899;27;19923;-86
2021/09/12 00:16:00;;;;;;;;;;;15.60;99.90;;;;;;5128569;27;19930;-87
2021/09/12 00:18:28;;;;;;;;;;;15.70;99.90;;;;;;5137390;27;19923;-86
2021/09/12 00:20:54;;;;;;;;;;;15.70;99.90;;;;;;5137472;27;19924;-87
2021/09/12 00:23:23;;;;;;;;;;;15.70;99.90;;;;;;5137381;27;19934;-87
2021/09/12 00:25:52;;;;;;;;;;;15.70;99.90;;;;;;5137473;27;19923;-86
2021/09/12 00:28:19;;;;;;;;;;;15.70;99.90;;;;;;5137539;27;19934;-82
2021/09/12 00:30:47;;;;;;;;;;;15.70;99.90;;;;;;5137547;27;19933;-83
2021/09/12 00:33:17;;;;;;;;;;;15.70;99.90;;;;;;5137207;27;20355;-85
2021/09/12 00:35:45;;;;;;;;;;;15.70;99.90;;;;;;5137208;27;19924;-83
2021/09/12 00:38:13;;;;;;;;;;;15.70;99.90;;;;;;5137096;27;20375;-83
2021/09/12 00:40:43;;;;;;;;;;;15.70;99.90;;;;;;5137107;27;19934;-83
2021/09/12 00:43:12;;;;;;;;;;;15.70;99.90;;;;;;5137197;27;19988;-83
2021/09/12 00:45:39;;;;;;;;;;;15.70;99.90;;;;;;5134043;27;19924;-83
2021/09/12 00:48:06;;;;;;;;;;;15.70;99.90;;;;;;5136982;27;20024;-83
2021/09/12 00:50:47;;;;;;;;;;;15.80;99.90;;;;;;5136980;27;19923;-83
2021/09/12 00:53:15;;;;;;;;;;;15.80;99.90;;;;;;5137081;27;19924;-83
2021/09/12 00:55:41;;;;;;;;;;;15.80;99.90;;;;;;5136706;27;19927;-82
2021/09/12 00:58:13;;;;;;;;;;;15.80;99.90;;;;;;5136891;27;19935;-82
2021/09/12 01:00:51;;;;;;;;;;;15.80;99.90;;;;;;5136876;27;19976;-84
2021/09/12 01:03:18;;;;;;;;;;;15.80;99.90;;;;;;5136741;27;19946;-83
2021/09/12 01:05:48;;;;;;;;;;;15.70;99.90;;;;;;5136667;27;20354;-83
2021/09/12 01:08:16;;;;;;;;;;;15.70;99.90;;;;;;5136566;27;19939;-83
2021/09/12 01:10:45;;;;;;;;;;;15.70;99.90;;;;;;5136602;27;19924;-83
2021/09/12 01:13:15;;;;;;;;;;;15.70;99.90;;;;;;5136567;27;19927;-83
2021/09/12 01:15:43;;;;;;;;;;;15.70;99.90;;;;;;5136491;27;20381;-83
2021/09/12 01:18:13;;;;;;;;;;;15.80;99.90;;;;;;5136210;27;19923;-83
2021/09/12 01:20:40;;;;;;;;;;;15.80;99.90;;;;;;5136610;27;19923;-83
2021/09/12 01:23:09;;;;;;;;;;;15.80;99.90;;;;;;5135972;27;20252;-83
2021/09/12 01:25:41;;;;;;;;;;;15.80;99.90;;;;;;5136431;27;19933;-84
2021/09/12 01:28:09;;;;;;;;;;;15.80;99.90;;;;;;5136316;27;19931;-83
2021/09/12 01:30:38;;;;;;;;;;;15.70;99.90;;;;;;5136268;27;19930;-83
2021/09/12 01:33:09;;;;;;;;;;;15.80;99.90;;;;;;5136486;27;19923;-83
2021/09/12 01:35:36;;;;;;;;;;;15.80;99.90;;;;;;5136341;27;19977;-83
2021/09/12 01:38:05;;;;;;;;;;;15.70;99.90;;;;;;5136278;27;19924;-83
2021/09/12 01:40:33;;;;;;;;;;;15.70;99.90;;;;;;5136184;27;19927;-83
2021/09/12 01:43:03;;;;;;;;;;;15.70;99.90;;;;;;5136093;27;19930;-83
2021/09/12 01:45:31;;;;;;;;;;;15.70;99.90;;;;;;5136110;28;19938;-83
2021/09/12 01:48:00;;;;;;;;;;;15.70;99.90;;;;;;5136036;28;19923;-83
2021/09/12 01:50:29;;;;;;;;;;;15.70;99.90;;;;;;5136076;28;19923;-83
2021/09/12 01:52:58;;;;;;;;;;;15.70;99.90;;;;;;5136173;28;19986;-84
2021/09/12 01:55:26;;;;;;;;;;;15.70;99.90;;;;;;5135983;28;19942;-83
2021/09/12 01:57:54;;;;;;;;;;;15.70;99.90;;;;;;5136167;28;19924;-84
2021/09/12 02:00:24;;;;;;;;;;;15.70;99.90;;;;;;5136221;28;20000;-83
2021/09/12 02:02:54;;;;;;;;;;;15.70;99.90;;;;;;5135933;28;19923;-81
2021/09/12 02:05:23;;;;;;;;;;;15.70;99.90;;;;;;5135993;28;20340;-83
2021/09/12 02:07:50;;;;;;;;;;;15.70;99.90;;;;;;5135817;28;19930;-82
2021/09/12 02:10:25;;;;;;;;;;;15.70;99.90;;;;;;5136157;28;19933;-83
2021/09/12 02:12:54;;;;;;;;;;;15.70;99.90;;;;;;5136373;28;19927;-95
2021/09/12 02:15:24;;;;;;;;;;;15.70;99.90;;;;;;5136063;28;20297;-81
2021/09/12 02:17:52;;;;;;;;;;;15.70;99.90;;;;;;5135697;28;19924;-80
2021/09/12 02:20:20;;;;;;;;;;;15.70;99.90;;;;;;5135770;28;19934;-80
2021/09/12 02:22:48;;;;;;;;;;;15.70;99.90;;;;;;5136141;28;19934;-81
2021/09/12 02:27:58;;;;;;;;;;;15.70;99.90;;;;;;5135821;28;19924;-81
2021/09/12 02:30:28;;;;;;;;;;;15.70;99.90;;;;;;5135950;28;20336;-81
2021/09/12 02:32:56;;;;;;;;;;;15.70;99.90;;;;;;5135682;27;19943;-81
2021/09/12 02:35:24;;;;;;;;;;;15.70;99.90;;;;;;5139539;27;19924;-81
2021/09/12 02:37:52;;;;;;;;;;;15.70;99.90;;;;;;5139522;27;19929;-80
2021/09/12 02:40:21;;;;;;;;;;;15.70;99.90;;;;;;5139445;27;20369;-81
2021/09/12 02:42:49;;;;;;;;;;;15.70;99.90;;;;;;5139554;27;19924;-82
2021/09/12 02:45:17;;;;;;;;;;;15.70;99.90;;;;;;5139357;27;19923;-82
2021/09/12 02:47:47;;;;;;;;;;;15.70;99.90;;;;;;5139522;27;20259;-82
2021/09/12 02:50:23;;;;;;;;;;;15.70;99.90;;;;;;5139479;27;19923;-81
2021/09/12 02:52:51;;;;;;;;;;;15.60;99.90;;;;;;5139665;27;20239;-81
2021/09/12 02:55:19;;;;;;;;;;;15.60;99.90;;;;;;5139414;27;19923;-81
2021/09/12 02:57:47;;;;;;;;;;;15.60;99.90;;;;;;5139268;27;19923;-81
2021/09/12 03:00:14;;;;;;;;;;;15.60;99.90;;;;;;5139036;27;20357;-81
2021/09/12 03:02:44;;;;;;;;;;;15.60;99.90;;;;;;5139125;27;19936;-81
2021/09/12 03:05:12;;;;;;;;;;;15.60;99.90;;;;;;5138999;27;19930;-81
2021/09/12 03:07:40;;;;;;;;;;;15.60;99.90;;;;;;5139118;27;19923;-80
2021/09/12 03:10:09;;;;;;;;;;;15.60;99.90;;;;;;5139088;27;19933;-81
2021/09/12 03:12:37;;;;;;;;;;;15.60;99.90;;;;;;5138841;27;20252;-81
2021/09/12 03:15:05;;;;;;;;;;;15.50;99.90;;;;;;5138712;27;20244;-81
2021/09/12 03:17:33;;;;;;;;;;;15.50;99.90;;;;;;5138508;27;19923;-80
2021/09/12 03:20:01;;;;;;;;;;;15.50;99.90;;;;;;5139317;27;19945;-82
2021/09/12 03:22:30;;;;;;;;;;;15.50;99.90;;;;;;5138665;27;19924;-81
2021/09/12 03:24:59;;;;;;;;;;;15.50;99.90;;;;;;5138563;27;19923;-81
2021/09/12 03:27:27;;;;;;;;;;;15.50;99.90;;;;;;5138391;27;19933;-81
2021/09/12 03:29:55;;;;;;;;;;;15.50;99.90;;;;;;5138775;27;19923;-81
2021/09/12 03:32:23;;;;;;;;;;;15.40;99.90;;;;;;5138786;27;19933;-80
2021/09/12 03:34:53;;;;;;;;;;;15.40;99.90;;;;;;5138720;27;19929;-81
2021/09/12 03:37:20;;;;;;;;;;;15.40;99.90;;;;;;5138506;27;20426;-81
2021/09/12 03:39:54;;;;;;;;;;;15.30;99.90;;;;;;5138366;27;19931;-81
2021/09/12 03:42:22;;;;;;;;;;;15.30;99.90;;;;;;5138317;27;19934;-81
2021/09/12 03:44:52;;;;;;;;;;;15.30;99.90;;;;;;5138048;27;19929;-81
2021/09/12 03:47:20;;;;;;;;;;;15.30;99.90;;;;;;5138521;27;19931;-81
2021/09/12 03:49:47;;;;;;;;;;;15.30;99.90;;;;;;5138339;27;19934;-81
2021/09/12 03:52:15;;;;;;;;;;;15.20;99.90;;;;;;5138136;27;20370;-81
2021/09/12 03:54:43;;;;;;;;;;;15.20;99.90;;;;;;5138017;27;19953;-81
2021/09/12 03:57:12;;;;;;;;;;;15.10;99.90;;;;;;5138203;27;19923;-80
2021/09/12 03:59:40;;;;;;;;;;;15.10;99.90;;;;;;5138112;27;20324;-80
2021/09/12 04:02:08;;;;;;;;;;;15.10;99.90;;;;;;5138126;27;19924;-81
2021/09/12 04:04:36;;;;;;;;;;;15.10;99.90;;;;;;5138068;27;19934;-81
2021/09/12 04:07:04;;;;;;;;;;;15.10;99.90;;;;;;5137732;27;19945;-81
2021/09/12 04:09:32;;;;;;;;;;;15.00;99.90;;;;;;5137997;27;19969;-81
2021/09/12 04:12:00;;;;;;;;;;;15.10;99.90;;;;;;5137985;27;19929;-81
2021/09/12 04:14:29;;;;;;;;;;;15.10;99.90;;;;;;5137771;27;19923;-81
2021/09/12 04:16:58;;;;;;;;;;;15.10;99.90;;;;;;5137365;27;19923;-82
2021/09/12 04:19:26;;;;;;;;;;;15.10;99.90;;;;;;5137674;27;19923;-81
2021/09/12 04:21:54;;;;;;;;;;;15.10;99.90;;;;;;5137924;27;19924;-82
2021/09/12 04:24:23;;;;;;;;;;;15.10;99.90;;;;;;5137804;27;19949;-81
2021/09/12 04:26:52;;;;;;;;;;;15.10;99.90;;;;;;5137694;27;19923;-81
2021/09/12 04:29:18;;;;;;;;;;;15.10;99.90;;;;;;5137618;27;19923;-81
2021/09/12 04:31:48;;;;;;;;;;;15.10;99.90;;;;;;5137712;27;20021;-82
2021/09/12 04:34:16;;;;;;;;;;;15.10;99.90;;;;;;5137487;27;19934;-81
2021/09/12 04:36:44;;;;;;;;;;;15.00;99.90;;;;;;5137191;27;19927;-81
2021/09/12 04:39:12;;;;;;;;;;;15.00;99.90;;;;;;5137127;27;20250;-81
2021/09/12 04:41:41;;;;;;;;;;;15.00;99.90;;;;;;5137187;27;19923;-81
2021/09/12 04:44:10;;;;;;;;;;;15.00;99.90;;;;;;5137099;27;19923;-81
2021/09/12 04:46:38;;;;;;;;;;;15.00;99.90;;;;;;5137021;27;19980;-81
2021/09/12 04:49:08;;;;;;;;;;;15.00;99.90;;;;;;5136946;27;20383;-81
2021/09/12 04:51:37;;;;;;;;;;;15.00;99.90;;;;;;5137479;27;19972;-80
2021/09/12 04:54:09;;;;;;;;;;;15.00;99.90;;;;;;5136816;27;19924;-81
2021/09/12 04:56:37;;;;;;;;;;;15.00;99.90;;;;;;5135830;27;19934;-81
2021/09/12 04:59:05;;;;;;;;;;;15.00;99.90;;;;;;5137003;27;19927;-81
2021/09/12 05:01:37;;;;;;;;;;;15.00;99.90;;;;;;5136706;27;20252;-82
2021/09/12 05:04:05;;;;;;;;;;;15.00;99.90;;;;;;5136793;27;19930;-81
2021/09/12 05:06:34;;;;;;;;;;;15.00;99.90;;;;;;5136858;27;19924;-80
2021/09/12 05:09:02;;;;;;;;;;;14.90;99.90;;;;;;5136990;27;19924;-81
2021/09/12 05:11:30;;;;;;;;;;;14.90;99.90;;;;;;5136627;27;19934;-81
2021/09/12 05:13:58;;;;;;;;;;;14.90;99.90;;;;;;5136551;27;20343;-81
2021/09/12 05:16:27;;;;;;;;;;;14.80;99.90;;;;;;5136416;27;19923;-81
2021/09/12 05:18:55;;;;;;;;;;;14.80;99.90;;;;;;5136475;27;19923;-81
2021/09/12 05:21:23;;;;;;;;;;;14.80;99.90;;;;;;5136689;27;19945;-81
2021/09/12 05:23:52;;;;;;;;;;;14.80;99.90;;;;;;5136525;27;19923;-82
2021/09/12 05:26:20;;;;;;;;;;;14.70;99.90;;;;;;5136663;27;19934;-82
2021/09/12 05:28:48;;;;;;;;;;;14.70;99.90;;;;;;5136328;27;20343;-82
2021/09/12 05:31:16;;;;;;;;;;;14.70;99.90;;;;;;5136246;27;19928;-80
2021/09/12 05:33:43;;;;;;;;;;;14.60;99.90;;;;;;5136562;27;19934;-82
2021/09/12 05:36:11;;;;;;;;;;;14.60;99.90;;;;;;5136234;27;20262;-81
2021/09/12 05:38:39;;;;;;;;;;;14.60;99.90;;;;;;5136322;27;19942;-80
2021/09/12 05:41:09;;;;;;;;;;;14.60;99.90;;;;;;5136204;27;20006;-81
2021/09/12 05:43:37;;;;;;;;;;;14.60;99.90;;;;;;5136096;27;19934;-81
2021/09/12 05:46:05;;;;;;;;;;;14.60;99.90;;;;;;5136125;27;20343;-82
2021/09/12 05:48:33;;;;;;;;;;;14.50;99.90;;;;;;5136003;28;19923;-81
2021/09/12 05:51:01;;;;;;;;;;;14.50;99.90;;;;;;5135968;28;19933;-82
2021/09/12 05:53:29;;;;;;;;;;;14.50;99.90;;;;;;5136214;28;19923;-82
2021/09/12 05:55:58;;;;;;;;;;;14.50;99.90;;;;;;5135987;28;19930;-81
2021/09/12 05:58:28;;;;;;;;;;;14.50;99.90;;;;;;5136110;28;19930;-82
2021/09/12 06:00:56;;;;;;;;;;;14.60;99.90;;;;;;5136133;28;19927;-80
2021/09/12 06:03:24;;;;;;;;;;;14.60;99.90;;;;;;5136294;28;19923;-81
2021/09/12 06:05:55;;;;;;;;;;;14.60;99.90;;;;;;5136219;28;19933;-82
2021/09/12 06:08:22;;;;;;;;;;;14.60;99.90;;;;;;5138411;27;19998;-81
2021/09/12 06:10:48;;;;;;;;;;;14.60;99.90;;;;;;5140380;27;20323;-81
2021/09/12 06:13:18;;;;;;;;;;;14.50;99.90;;;;;;5140036;27;19923;-81
2021/09/12 06:15:47;;;;;;;;;;;14.60;99.90;;;;;;5140143;27;19927;-82
2021/09/12 06:18:16;;;;;;;;;;;14.60;99.90;;;;;;5139692;27;19933;-81
2021/09/12 06:20:44;;;;;;;;;;;14.60;99.90;;;;;;5139900;27;19923;-81
2021/09/12 06:23:12;;;;;;;;;;;14.60;99.90;;;;;;5139793;27;19924;-81
2021/09/12 06:25:40;;;;;;;;;;;14.60;99.90;;;;;;5140001;27;19934;-82
2021/09/12 06:28:09;;;;;;;;;;;14.60;99.90;;;;;;5139887;27;19923;-81
2021/09/12 06:30:37;;;;;;;;;;;14.60;99.90;;;;;;5139978;27;19945;-81
2021/09/12 06:33:10;;;;;;;;;;;14.50;99.90;;;;;;5139701;27;19924;-81
2021/09/12 06:35:38;;;;;;;;;;;14.60;99.90;;;;;;5139627;27;19927;-81
2021/09/12 06:38:07;;;;;;;;;;;14.60;99.90;;;;;;5139521;27;19923;-81
2021/09/12 06:40:35;;;;;;;;;;;14.60;99.90;;;;;;5139594;27;20002;-81
2021/09/12 06:43:03;;;;;;;;;;;14.70;99.90;;;;;;5139692;27;19924;-81
2021/09/12 06:45:31;;;;;;;;;;;14.70;99.90;;;;;;5139367;27;20347;-81
2021/09/12 06:47:59;;;;;;;;;;;14.70;99.90;;;;;;5138896;27;19923;-82
2021/09/12 06:50:29;;;;;;;;;;;14.80;99.90;;;;;;5139523;27;19923;-82
2021/09/12 06:52:58;;;;;;;;;;;14.80;99.90;;;;;;5139839;27;19923;-81
2021/09/12 06:55:26;;;;;;;;;;;14.90;99.90;;;;;;5139464;27;19927;-81
2021/09/12 06:57:54;;;;;;;;;;;14.90;99.90;;;;;;5139107;27;19930;-81
2021/09/12 07:00:23;;;;;;;;;;;14.90;99.90;;;;;;5139155;27;19930;-81
2021/09/12 07:02:50;;;;;;;;;;;15.00;99.90;;;;;;5139035;27;19929;-81
2021/09/12 07:05:18;;;;;;;;;;;15.00;99.90;;;;;;5139163;27;19923;-81
2021/09/12 07:07:48;;;;;;;;;;;15.10;99.90;;;;;;5139182;27;19928;-81
2021/09/12 07:10:18;;;;;;;;;;;15.10;99.90;;;;;;5138937;27;19937;-81
2021/09/12 07:12:46;;;;;;;;;;;15.10;99.90;;;;;;5138909;27;19927;-81
2021/09/12 07:15:14;;;;;;;;;;;15.20;99.90;;;;;;5138818;27;19923;-81
2021/09/12 07:17:42;;;;;;;;;;;15.20;99.90;;;;;;5139117;27;20266;-81
2021/09/12 07:20:11;;;;;;;;;;;15.20;99.90;;;;;;5138221;27;19923;-82
2021/09/12 07:22:39;;;;;;;;;;;15.20;99.90;;;;;;5138751;27;19923;-82
2021/09/12 07:25:09;;;;;;;;;;;15.30;99.90;;;;;;5138588;27;20331;-80
2021/09/12 07:27:37;;;;;;;;;;;15.30;99.90;;;;;;5138450;27;19924;-81
2021/09/12 07:30:04;;;;;;;;;;;15.40;99.90;;;;;;5138430;27;19923;-82
2021/09/12 07:32:32;;;;;;;;;;;15.40;99.90;;;;;;5138470;27;20347;-82
2021/09/12 07:35:00;;;;;;;;;;;15.40;99.90;;;;;;5138738;27;19924;-81
2021/09/12 07:37:28;;;;;;;;;;;15.40;99.90;;;;;;5138371;27;19934;-82
2021/09/12 07:39:56;;;;;;;;;;;15.40;99.90;;;;;;5138424;27;20369;-82
2021/09/12 07:42:26;;;;;;;;;;;15.50;99.90;;;;;;5138493;27;19924;-82
2021/09/12 07:44:54;;;;;;;;;;;15.50;99.90;;;;;;5138539;27;19923;-83
2021/09/12 07:47:23;;;;;;;;;;;15.60;99.90;;;;;;5138244;27;19924;-84
2021/09/12 07:49:51;;;;;;;;;;;15.70;99.90;;;;;;5138190;27;20342;-83
2021/09/12 07:52:19;;;;;;;;;;;15.80;99.90;;;;;;5138213;27;19923;-83
2021/09/12 07:54:50;;;;;;;;;;;15.90;99.90;;;;;;5138297;27;19957;-83
2021/09/12 07:57:18;;;;;;;;;;;16.00;99.90;;;;;;5145669;27;19931;-83
2021/09/12 07:59:47;;;;;;;;;;;16.10;99.90;;;;;;5158984;27;19933;-83
2021/09/12 08:02:15;;;;;;;;;;;16.20;99.90;;;;;;5158606;27;20263;-83
2021/09/12 08:04:44;;;;;;;;;;;16.30;99.90;;;;;;5158872;27;20278;-83
2021/09/12 08:07:12;;;;;;;;;;;16.30;99.90;;;;;;5158839;27;19923;-83
2021/09/12 08:09:40;;;;;;;;;;;16.30;99.90;;;;;;5158745;27;19923;-83
2021/09/12 08:12:08;;;;;;;;;;;16.30;99.90;;;;;;5158546;27;19923;-83
2021/09/12 08:14:37;;;;;;;;;;;16.30;99.90;;;;;;5158413;27;19926;-83
2021/09/12 08:17:07;;;;;;;;;;;16.30;99.90;;;;;;5158439;27;19966;-83
2021/09/12 08:19:34;;;;;;;;;;;16.40;99.90;;;;;;5158408;27;19930;-83
2021/09/12 08:22:02;;;;;;;;;;;16.40;99.90;;;;;;5158264;27;20373;-83
2021/09/12 08:24:31;;;;;;;;;;;16.40;99.90;;;;;;5158233;27;19927;-83
2021/09/12 08:26:59;;;;;;;;;;;16.40;99.90;;;;;;5158236;27;20346;-82
2021/09/12 08:29:26;;;;;;;;;;;16.40;99.90;;;;;;5158074;27;19933;-83
2021/09/12 08:31:53;;;;;;;;;;;16.40;99.90;;;;;;5157464;27;19933;-83
2021/09/12 08:34:23;;;;;;;;;;;16.40;99.90;;;;;;5158156;27;19962;-83
2021/09/12 08:36:50;;;;;;;;;;;16.40;99.90;;;;;;5157831;27;19922;-82
2021/09/12 08:39:17;;;;;;;;;;;16.40;99.90;;;;;;5157826;27;20006;-83
2021/09/12 08:41:44;;;;;;;;;;;16.50;99.90;;;;;;5158132;27;19923;-82
2021/09/12 08:44:11;;;;;;;;;;;16.50;99.90;;;;;;5157996;27;19923;-82
2021/09/12 08:46:38;;;;;;;;;;;16.50;99.90;;;;;;5157989;27;19923;-83
2021/09/12 08:49:05;;;;;;;;;;;16.60;99.90;;;;;;5157824;27;19927;-82
2021/09/12 08:51:34;;;;;;;;;;;16.60;99.90;;;;;;5157966;27;19929;-82
2021/09/12 08:54:01;;;;;;;;;;;16.70;99.90;;;;;;5157706;27;20246;-82
2021/09/12 08:56:28;;;;;;;;;;;16.70;99.90;;;;;;5157874;27;19931;-82
2021/09/12 08:58:54;;;;;;;;;;;16.80;99.90;;;;;;5157583;27;20220;-82
2021/09/12 09:01:30;;;;;;;;;;;16.80;99.90;;;;;;5157589;27;19929;-82
2021/09/12 09:03:59;;;;;;;;;;;16.80;99.90;;;;;;5157466;27;19923;-81
2021/09/12 09:06:26;;;;;;;;;;;16.80;99.90;;;;;;5157585;27;19933;-82
2021/09/12 09:08:54;;;;;;;;;;;16.80;99.90;;;;;;5157431;27;19933;-82
2021/09/12 09:11:31;;;;;;;;;;;16.80;99.90;;;;;;5157628;27;20025;-82
2021/09/12 09:14:12;;;;;;;;;;;16.80;99.90;;;;;;5157283;27;19930;-82
2021/09/12 09:16:39;;;;;;;;;;;16.90;99.90;;;;;;5157308;27;19923;-82
2021/09/12 09:19:06;;;;;;;;;;;16.90;99.90;;;;;;5157161;27;19923;-82
2021/09/12 09:21:33;;;;;;;;;;;17.00;99.90;;;;;;5157226;27;19923;-82
2021/09/12 09:24:08;;;;;;;;;;;17.00;99.90;;;;;;5157315;27;19923;-82
2021/09/12 09:26:36;;;;;;;;;;;17.10;99.90;;;;;;5157357;27;19923;-82
2021/09/12 09:29:03;;;;;;;;;;;17.10;99.90;;;;;;5157038;27;19923;-82
2021/09/12 09:31:30;;;;;;;;;;;17.10;99.90;;;;;;5157139;27;19923;-81
2021/09/12 09:33:57;;;;;;;;;;;17.10;99.90;;;;;;5156956;27;19933;-82
2021/09/12 09:36:26;;;;;;;;;;;17.20;99.90;;;;;;5156954;27;19923;-82
2021/09/12 09:38:56;;;;;;;;;;;17.20;99.90;;;;;;5157337;27;19934;-82
2021/09/12 09:41:24;;;;;;;;;;;17.20;99.90;;;;;;5156956;27;19983;-82
2021/09/12 09:43:51;;;;;;;;;;;17.20;99.90;;;;;;5156699;27;19923;-82
2021/09/12 09:46:39;;;;;;;;;;;17.20;99.90;;;;;;5156844;27;19929;-82
2021/09/12 09:49:19;;;;;;;;;;;17.20;99.90;;;;;;5151647;27;19927;-82
2021/09/12 09:51:47;;;;;;;;;;;17.20;99.90;;;;;;5156936;27;20248;-81
2021/09/12 09:54:13;;;;;;;;;;;17.20;99.90;;;;;;5156798;27;19923;-82
2021/09/12 09:56:42;;;;;;;;;;;17.20;99.90;;;;;;5156488;27;20361;-82
2021/09/12 09:59:08;;;;;;;;;;;17.20;99.90;;;;;;5156884;27;19934;-82
2021/09/12 10:01:35;;;;;;;;;;;17.30;99.90;;;;;;5157129;27;19923;-81
2021/09/12 10:04:02;;;;;;;;;;;17.40;99.90;;;;;;5156759;27;20286;-82
2021/09/12 10:06:29;;;;;;;;;;;17.50;99.90;;;;;;5156810;27;20361;-82
2021/09/12 10:08:56;;;;;;;;;;;17.60;99.90;;;;;;5156913;27;19927;-82
2021/09/12 10:11:23;;;;;;;;;;;17.70;99.90;;;;;;5156816;27;19922;-82
2021/09/12 10:13:51;;;;;;;;;;;17.80;99.90;;;;;;5156811;27;19923;-82
2021/09/12 10:16:18;;;;;;;;;;;17.80;99.90;;;;;;5156544;27;19930;-82
2021/09/12 10:18:45;;;;;;;;;;;17.90;99.90;;;;;;5156596;27;19930;-82
2021/09/12 10:21:22;;;;;;;;;;;17.90;99.90;;;;;;5156577;27;19927;-81
2021/09/12 10:23:56;;;;;;;;;;;18.00;99.90;;;;;;5156581;27;19987;-81
2021/09/12 10:26:27;;;;;;;;;;;18.00;99.90;;;;;;5156777;27;19934;-82
2021/09/12 10:28:55;;;;;;;;;;;18.10;99.90;;;;;;5156316;27;19923;-82
2021/09/12 10:31:32;;;;;;;;;;;18.20;99.90;;;;;;5156475;27;19923;-81
2021/09/12 10:34:06;;;;;;;;;;;18.20;99.90;;;;;;5156629;27;19948;-81
2021/09/12 10:36:32;;;;;;;;;;;18.20;99.90;;;;;;5156373;27;19923;-82
2021/09/12 10:39:13;;;;;;;;;;;18.20;99.90;;;;;;5156534;27;19923;-82
2021/09/12 10:41:40;;;;;;;;;;;18.20;99.90;;;;;;5156475;27;19923;-81
2021/09/12 10:44:08;;;;;;;;;;;18.10;99.90;;;;;;5156307;27;20288;-81
2021/09/12 10:46:35;;;;;;;;;;;18.10;99.90;;;;;;5156176;27;19934;-81
2021/09/12 10:49:03;;;;;;;;;;;18.00;99.90;;;;;;5156534;27;19924;-81
2021/09/12 10:51:30;;;;;;;;;;;18.00;99.90;;;;;;5156433;27;19927;-81
2021/09/12 10:54:01;;;;;;;;;;;17.90;99.90;;;;;;5156323;27;20035;-81
2021/09/12 10:56:29;;;;;;;;;;;17.80;99.90;;;;;;5159886;27;20370;-82
2021/09/12 10:58:58;;;;;;;;;;;17.70;99.90;;;;;;5160004;27;19966;-81
2021/09/12 11:01:28;;;;;;;;;;;17.70;99.90;;;;;;5159921;27;19923;-82
2021/09/12 11:03:58;;;;;;;;;;;17.60;99.90;;;;;;5159973;27;19927;-82
2021/09/12 11:06:25;;;;;;;;;;;17.60;99.90;;;;;;5159839;27;19973;-82
2021/09/12 11:08:52;;;;;;;;;;;17.60;99.90;;;;;;5159922;27;19941;-82
2021/09/12 11:11:19;;;;;;;;;;;17.70;99.90;;;;;;5159784;27;19929;-82
2021/09/12 11:13:47;;;;;;;;;;;17.60;99.90;;;;;;5159723;27;19930;-82
2021/09/12 11:16:16;;;;;;;;;;;17.60;99.90;;;;;;5159212;27;19930;-82
2021/09/12 11:18:48;;;;;;;;;;;17.60;99.90;;;;;;5159923;27;19934;-82
2021/09/12 11:21:24;;;;;;;;;;;17.60;99.90;;;;;;5159080;27;19941;-82
2021/09/12 11:23:55;;;;;;;;;;;17.60;99.90;;;;;;5159493;27;19927;-82
2021/09/12 11:26:22;;;;;;;;;;;17.60;99.90;;;;;;5159616;27;20275;-82
2021/09/12 11:28:59;;;;;;;;;;;17.60;99.90;;;;;;5159608;27;19923;-81
2021/09/12 11:31:29;;;;;;;;;;;17.60;99.90;;;;;;5159221;27;19923;-81
2021/09/12 11:33:59;;;;;;;;;;;17.50;99.90;;;;;;5159194;27;20009;-81
2021/09/12 11:36:30;;;;;;;;;;;17.60;99.90;;;;;;5159308;27;19923;-81
2021/09/12 11:38:58;;;;;;;;;;;17.50;99.90;;;;;;5159236;27;20312;-81
2021/09/12 11:41:27;;;;;;;;;;;17.50;99.90;;;;;;5159581;27;19934;-81
2021/09/12 11:43:56;;;;;;;;;;;17.50;99.90;;;;;;5159274;27;19930;-82
2021/09/12 11:46:23;;;;;;;;;;;17.60;99.90;;;;;;5159254;27;19924;-81
2021/09/12 11:48:53;;;;;;;;;;;17.60;99.90;;;;;;5159086;27;20006;-82
2021/09/12 11:51:26;;;;;;;;;;;17.60;99.90;;;;;;5158751;27;20265;-82
2021/09/12 11:54:04;;;;;;;;;;;17.60;99.90;;;;;;5158956;27;19929;-81
2021/09/12 11:56:31;;;;;;;;;;;17.70;99.90;;;;;;5158968;27;19953;-81
2021/09/12 11:59:00;;;;;;;;;;;17.80;99.90;;;;;;5159057;27;19926;-81
2021/09/12 12:01:28;;;;;;;;;;;17.80;99.90;;;;;;5158969;27;19923;-81
2021/09/12 12:03:56;;;;;;;;;;;17.80;99.90;;;;;;5158873;27;19923;-81
2021/09/12 12:06:28;;;;;;;;;;;17.80;99.90;;;;;;5158816;27;19949;-81
2021/09/12 12:09:29;;;;;;;;;;;17.80;99.90;;;;;;5158771;27;19934;-82
2021/09/12 12:12:04;;;;;;;;;;;17.80;99.90;;;;;;5158530;27;19923;-82
2021/09/12 12:14:32;;;;;;;;;;;17.80;99.90;;;;;;5158430;27;19926;-82
2021/09/12 12:17:03;;;;;;;;;;;17.80;99.90;;;;;;5158710;27;19923;-81
2021/09/12 12:19:40;;;;;;;;;;;17.70;99.90;;;;;;5158522;27;19934;-81
2021/09/12 12:22:12;;;;;;;;;;;17.80;99.90;;;;;;5158348;27;19983;-81
2021/09/12 12:24:42;;;;;;;;;;;17.70;99.90;;;;;;5158272;27;19979;-82
2021/09/12 12:27:18;;;;;;;;;;;17.70;99.90;;;;;;5158422;27;19942;-81
2021/09/12 12:29:47;;;;;;;;;;;17.80;99.90;;;;;;5158094;27;19929;-82
2021/09/12 12:32:16;;;;;;;;;;;17.70;99.90;;;;;;5157742;27;19923;-81
2021/09/12 12:34:48;;;;;;;;;;;17.70;99.90;;;;;;5157699;27;19942;-81
2021/09/12 12:37:19;;;;;;;;;;;17.70;99.90;;;;;;5157964;27;19923;-81
2021/09/12 12:39:57;;;;;;;;;;;17.70;99.90;;;;;;5158176;27;19929;-81
2021/09/12 12:42:33;;;;;;;;;;;17.80;99.90;;;;;;5158054;27;20346;-82
2021/09/12 12:45:03;;;;;;;;;;;17.70;99.90;;;;;;5157888;27;19923;-82
2021/09/12 12:47:31;;;;;;;;;;;17.70;99.90;;;;;;5157583;27;19934;-82
2021/09/12 12:49:58;;;;;;;;;;;17.60;99.90;;;;;;5157663;27;19950;-81
2021/09/12 12:52:28;;;;;;;;;;;17.60;99.90;;;;;;5157976;27;19927;-81
2021/09/12 12:54:57;;;;;;;;;;;17.50;99.90;;;;;;5157710;27;19923;-82
2021/09/12 12:57:27;;;;;;;;;;;17.50;99.90;;;;;;5157370;27;19926;-82
2021/09/12 12:59:55;;;;;;;;;;;17.40;99.90;;;;;;5157658;27;19934;-81
2021/09/12 13:02:26;;;;;;;;;;;17.50;99.90;;;;;;5157425;27;20275;-81
2021/09/12 13:04:55;;;;;;;;;;;17.50;99.90;;;;;;5158024;27;19979;-81
2021/09/12 13:07:23;;;;;;;;;;;17.40;99.90;;;;;;5157859;27;20251;-81
2021/09/12 13:09:52;;;;;;;;;;;17.40;99.90;;;;;;5157402;27;19923;-82
2021/09/12 13:12:19;;;;;;;;;;;17.50;99.90;;;;;;5157220;27;19933;-82
2021/09/12 13:14:46;;;;;;;;;;;17.50;99.90;;;;;;5156805;27;19929;-82
2021/09/12 13:17:13;;;;;;;;;;;17.50;99.90;;;;;;5156716;27;20381;-82
2021/09/12 13:19:40;;;;;;;;;;;17.60;99.90;;;;;;5156987;27;19933;-82
2021/09/12 13:22:07;;;;;;;;;;;17.60;99.90;;;;;;5156877;27;19934;-82
2021/09/12 13:24:34;;;;;;;;;;;17.60;99.90;;;;;;5157206;27;19923;-81
2021/09/12 13:27:21;;;;;;;;;;;17.60;99.90;;;;;;5157464;27;20345;-82
2021/09/12 13:29:51;;;;;;;;;;;17.70;99.90;;;;;;5157197;27;20360;-82
2021/09/12 13:32:19;;;;;;;;;;;17.80;99.90;;;;;;5157244;27;19934;-81
2021/09/12 13:34:49;;;;;;;;;;;17.80;99.90;;;;;;5157196;27;19923;-82
2021/09/12 13:37:20;;;;;;;;;;;17.90;99.90;;;;;;5157059;27;20362;-81
2021/09/12 13:39:49;;;;;;;;;;;17.90;99.90;;;;;;5157090;27;19923;-81
2021/09/12 13:42:22;;;;;;;;;;;17.90;99.90;;;;;;5156853;27;19926;-82
2021/09/12 13:47:30;;;;;;;;;;;17.80;99.90;;;;;;5156923;27;19937;-81
2021/09/12 13:49:59;;;;;;;;;;;17.70;99.90;;;;;;5156926;27;19923;-81
2021/09/12 13:52:27;;;;;;;;;;;17.70;99.90;;;;;;5157641;27;19924;-82
2021/09/12 13:54:55;;;;;;;;;;;17.60;99.90;;;;;;5156711;27;19923;-82
2021/09/12 13:57:25;;;;;;;;;;;17.70;99.90;;;;;;5156449;27;19923;-81
2021/09/12 13:59:55;;;;;;;;;;;17.60;99.90;;;;;;5156695;27;20263;-82
2021/09/12 14:02:26;;;;;;;;;;;17.60;99.90;;;;;;5156792;27;20374;-82
2021/09/12 14:04:55;;;;;;;;;;;17.50;99.90;;;;;;5156829;27;20282;-81
2021/09/12 14:07:28;;;;;;;;;;;17.60;99.90;;;;;;5156698;27;20457;-82
2021/09/12 14:09:59;;;;;;;;;;;17.50;99.90;;;;;;5156443;27;20366;-82
2021/09/12 14:12:43;;;;;;;;;;;17.50;99.90;;;;;;5155277;27;20263;-82
2021/09/12 14:15:13;;;;;;;;;;;17.50;99.90;;;;;;5156808;27;19981;-82
2021/09/12 14:17:44;;;;;;;;;;;17.60;99.90;;;;;;5156833;27;19933;-81
2021/09/12 14:20:11;;;;;;;;;;;17.50;99.90;;;;;;5156430;27;19927;-82
2021/09/12 14:22:40;;;;;;;;;;;17.50;99.90;;;;;;5156465;27;20378;-81
2021/09/12 14:25:11;;;;;;;;;;;17.50;99.90;;;;;;5156740;27;20347;-82
2021/09/12 14:27:41;;;;;;;;;;;17.50;99.90;;;;;;5156472;27;20398;-82
2021/09/12 14:30:10;;;;;;;;;;;17.50;99.90;;;;;;5158322;27;19923;-82
2021/09/12 14:32:36;;;;;;;;;;;17.50;99.90;;;;;;5160863;27;19934;-82